createdAt,value
2019-01-10T00:01:25.477Z,102658.17
2019-01-10T00:03:55.696Z,102664.31
2019-01-10T00:06:25.888Z,102666.17
2019-01-10T00:08:56.016Z,102662.91
2019-01-10T00:11:26.606Z,102660.49
2019-01-10T00:13:56.721Z,102667.12
2019-01-10T00:16:26.923Z,102668.49
2019-01-10T00:18:57.253Z,102669.75
2019-01-10T00:21:27.445Z,102668.66
2019-01-10T00:23:57.571Z,102665.63
2019-01-10T00:26:27.860Z,102660.27
2019-01-10T00:28:58.075Z,102667.89
2019-01-10T00:31:28.281Z,102672.85
2019-01-10T00:33:58.351Z,102672.73
2019-01-10T00:36:28.531Z,102673.50
2019-01-10T00:38:58.733Z,102668.41
2019-01-10T00:41:28.855Z,102668.41
2019-01-10T00:43:58.908Z,102671.67
2019-01-10T00:46:29.002Z,102668.48
2019-01-10T00:48:59.127Z,102674.73
2019-01-10T00:51:29.310Z,102676.58
2019-01-10T00:53:59.514Z,102677.14
2019-01-10T00:56:29.720Z,102677.14
2019-01-10T00:59:00.024Z,102686.45
2019-01-10T01:01:30.211Z,102685.16
2019-01-10T01:04:00.416Z,102679.88
2019-01-10T01:06:30.599Z,102682.46
2019-01-10T01:09:00.808Z,102688.02
2019-01-10T01:11:30.958Z,102683.75
2019-01-10T01:14:01.138Z,102689.16
2019-01-10T01:16:31.334Z,102698.92
2019-01-10T01:19:01.462Z,102691.88
2019-01-10T01:21:31.669Z,102695.18
2019-01-10T01:24:01.855Z,102698.38
2019-01-10T01:26:31.977Z,102706.35
2019-01-10T01:29:02.158Z,102702.41
2019-01-10T01:31:32.358Z,102703.82
2019-01-10T01:34:02.414Z,102705.44
2019-01-10T01:36:32.544Z,102702.25
2019-01-10T01:39:02.611Z,102696.05
2019-01-10T01:41:32.737Z,102687.21
2019-01-10T01:44:02.941Z,102696.57
2019-01-10T01:46:43.901Z,102698.47
2019-01-10T01:49:22.940Z,102699.76
2019-01-10T01:51:53.094Z,102705.64
2019-01-10T01:54:23.367Z,102710.52
2019-01-10T01:56:53.545Z,102706.97
2019-01-10T01:59:23.682Z,102703.70
2019-01-10T02:01:54.146Z,102709.11
2019-01-10T02:04:24.273Z,102715.25
2019-01-10T02:06:54.389Z,102714.19
2019-01-10T02:09:24.517Z,102713.50
2019-01-10T02:11:54.764Z,102717.49
2019-01-10T02:14:24.938Z,102723.34
2019-01-10T02:16:55.062Z,102726.94
2019-01-10T02:19:25.177Z,102735.41
2019-01-10T02:21:55.456Z,102737.82
2019-01-10T02:24:25.724Z,102741.78
2019-01-10T02:26:55.852Z,102738.91
2019-01-10T02:29:26.108Z,102741.20
2019-01-10T02:31:56.307Z,102738.22
2019-01-10T02:34:26.425Z,102733.86
2019-01-10T02:36:56.611Z,102737.45
2019-01-10T02:39:26.836Z,102734.58
2019-01-10T02:41:57.010Z,102734.58
2019-01-10T02:44:27.227Z,102738.05
2019-01-10T02:46:57.377Z,102731.79
2019-01-10T02:49:27.428Z,102736.19
2019-01-10T02:51:57.602Z,102740.06
2019-01-10T02:54:27.879Z,102749.52
2019-01-10T02:56:58.083Z,102752.47
2019-01-10T02:59:28.260Z,102754.08
2019-01-10T03:01:58.387Z,102761.83
2019-01-10T03:04:33.486Z,102764.09
2019-01-10T03:07:01.151Z,102759.73
2019-01-10T03:09:31.348Z,102761.51
2019-01-10T03:12:01.485Z,102755.56
2019-01-10T03:14:31.698Z,102747.12
2019-01-10T03:17:01.893Z,102738.97
2019-01-10T03:19:32.087Z,102744.66
2019-01-10T03:22:02.359Z,102752.70
2019-01-10T03:24:32.497Z,102752.78
2019-01-10T03:27:02.758Z,102755.48
2019-01-10T03:29:32.888Z,102759.47
2019-01-10T03:32:03.180Z,102757.78
2019-01-10T03:34:34.993Z,102761.17
2019-01-10T03:37:05.172Z,102759.95
2019-01-10T03:39:35.312Z,102758.30
2019-01-10T03:42:06.758Z,102759.19
2019-01-10T03:44:36.836Z,102758.50
2019-01-10T03:47:07.050Z,102752.03
2019-01-10T03:49:37.219Z,102746.06
2019-01-10T03:52:07.460Z,102740.89
2019-01-10T03:54:37.596Z,102741.13
2019-01-10T03:57:07.718Z,102728.69
2019-01-10T03:59:37.926Z,102733.56
2019-01-10T04:02:08.122Z,102743.61
2019-01-10T04:04:38.332Z,102747.98
2019-01-10T04:07:08.530Z,102733.56
2019-01-10T04:09:38.741Z,102744.22
2019-01-10T04:12:08.954Z,102739.94
2019-01-10T04:14:39.407Z,102742.15
2019-01-10T04:17:09.608Z,102745.10
2019-01-10T04:19:39.840Z,102736.86
2019-01-10T04:22:10.109Z,102733.59
2019-01-10T04:24:40.263Z,102736.98
2019-01-10T04:27:13.460Z,102735.77
2019-01-10T04:29:43.580Z,102731.89
2019-01-10T04:32:13.725Z,102735.77
2019-01-10T04:34:43.788Z,102736.58
2019-01-10T04:37:13.912Z,102736.86
2019-01-10T04:39:44.029Z,102735.98
2019-01-10T04:42:14.246Z,102730.17
2019-01-10T04:44:44.451Z,102729.80
2019-01-10T04:47:14.590Z,102729.69
2019-01-10T04:49:44.756Z,102723.11
2019-01-10T04:52:17.850Z,102735.55
2019-01-10T04:54:47.900Z,102732.45
2019-01-10T04:57:18.208Z,102740.20
2019-01-10T04:59:48.258Z,102739.71
2019-01-10T05:02:18.795Z,102725.38
2019-01-10T05:04:49.020Z,102732.84
2019-01-10T05:07:19.285Z,102728.20
2019-01-10T05:09:49.468Z,102736.03
2019-01-10T05:12:19.515Z,102727.50
2019-01-10T05:14:49.637Z,102724.41
2019-01-10T05:17:19.832Z,102726.00
2019-01-10T05:19:49.955Z,102720.06
2019-01-10T05:22:20.130Z,102729.22
2019-01-10T05:24:50.245Z,102728.90
2019-01-10T05:27:20.383Z,102731.20
2019-01-10T05:29:50.520Z,102731.72
2019-01-10T05:32:20.707Z,102736.19
2019-01-10T05:34:50.752Z,102739.27
2019-01-10T05:37:20.962Z,102726.85
2019-01-10T05:39:50.989Z,102729.73
2019-01-10T05:42:21.060Z,102738.97
2019-01-10T05:44:51.193Z,102729.92
2019-01-10T05:47:21.428Z,102738.20
2019-01-10T05:49:51.466Z,102734.80
2019-01-10T05:52:21.674Z,102734.52
2019-01-10T05:54:51.758Z,102748.25
2019-01-10T05:57:21.866Z,102746.15
2019-01-10T05:59:52.006Z,102745.37
2019-01-10T06:02:22.034Z,102755.39
2019-01-10T06:04:52.163Z,102753.03
2019-01-10T06:07:22.292Z,102748.64
2019-01-10T06:09:52.350Z,102754.33
2019-01-10T06:12:22.463Z,102754.81
2019-01-10T06:14:54.199Z,102757.92
2019-01-10T06:17:24.322Z,102749.47
2019-01-10T06:19:54.503Z,102757.34
2019-01-10T06:22:24.702Z,102762.99
2019-01-10T06:24:54.820Z,102766.47
2019-01-10T06:27:25.007Z,102759.23
2019-01-10T06:29:55.283Z,102757.41
2019-01-10T06:32:25.494Z,102766.06
2019-01-10T06:34:55.712Z,102766.58
2019-01-10T06:37:25.853Z,102773.05
2019-01-10T06:39:55.990Z,102764.48
2019-01-10T06:42:26.188Z,102767.98
2019-01-10T06:44:56.243Z,102778.41
2019-01-10T06:47:26.451Z,102768.47
2019-01-10T06:49:56.510Z,102778.33
2019-01-10T06:52:26.744Z,102779.70
2019-01-10T06:54:56.956Z,102780.71
2019-01-10T06:57:27.010Z,102773.06
2019-01-10T06:59:57.144Z,102777.55
2019-01-10T07:02:27.430Z,102779.32
2019-01-10T07:04:57.555Z,102778.95
2019-01-10T07:07:27.693Z,102779.55
2019-01-10T07:09:57.879Z,102782.62
2019-01-10T07:12:28.112Z,102782.21
2019-01-10T07:14:58.245Z,102791.27
2019-01-10T07:17:28.383Z,102796.44
2019-01-10T07:19:58.437Z,102795.55
2019-01-10T07:22:28.509Z,102793.48
2019-01-10T07:24:58.743Z,102798.66
2019-01-10T07:27:28.948Z,102794.38
2019-01-10T07:29:59.737Z,102802.91
2019-01-10T07:32:30.081Z,102811.30
2019-01-10T07:35:19.025Z,102811.30
2019-01-10T07:37:57.508Z,102811.67
2019-01-10T07:40:28.496Z,102814.89
2019-01-10T07:42:58.950Z,102807.13
2019-01-10T07:45:31.917Z,102808.62
2019-01-10T07:48:02.100Z,102809.10
2019-01-10T07:50:37.652Z,102811.32
2019-01-10T07:53:09.674Z,102808.92
2019-01-10T07:55:40.499Z,102812.92
2019-01-10T07:58:10.719Z,102809.92
2019-01-10T08:00:40.898Z,102817.17
2019-01-10T08:03:11.164Z,102823.46
2019-01-10T08:05:41.349Z,102827.83
2019-01-10T08:08:11.485Z,102819.77
2019-01-10T08:10:41.786Z,102828.13
2019-01-10T08:13:12.129Z,102827.47
2019-01-10T08:15:42.323Z,102828.95
2019-01-10T08:18:12.522Z,102832.55
2019-01-10T08:20:42.808Z,102828.86
2019-01-10T08:23:12.990Z,102838.62
2019-01-10T08:25:43.096Z,102834.45
2019-01-10T08:28:13.362Z,102842.11
2019-01-10T08:30:45.016Z,102838.82
2019-01-10T08:33:15.134Z,102840.82
2019-01-10T08:35:45.395Z,102841.02
2019-01-10T08:38:15.629Z,102845.53
2019-01-10T08:40:45.806Z,102840.23
2019-01-10T08:43:16.010Z,102843.02
2019-01-10T08:45:46.146Z,102846.72
2019-01-10T08:48:16.213Z,102848.31
2019-01-10T08:50:46.403Z,102841.24
2019-01-10T08:53:16.650Z,102837.43
2019-01-10T08:55:46.870Z,102844.42
2019-01-10T08:58:16.992Z,102842.91
2019-01-10T09:00:47.220Z,102844.31
2019-01-10T09:03:17.423Z,102843.49
2019-01-10T09:05:47.638Z,102847.60
2019-01-10T09:08:17.905Z,102854.27
2019-01-10T09:10:48.130Z,102852.67
2019-01-10T09:13:18.184Z,102849.38
2019-01-10T09:15:48.374Z,102852.19
2019-01-10T09:18:18.696Z,102851.95
2019-01-10T09:20:48.903Z,102855.36
2019-01-10T09:23:19.026Z,102854.64
2019-01-10T09:25:49.230Z,102855.72
2019-01-10T09:28:19.417Z,102861.19
2019-01-10T09:30:49.635Z,102856.52
2019-01-10T09:33:19.964Z,102850.14
2019-01-10T09:35:50.143Z,102858.99
2019-01-10T09:38:20.385Z,102849.20
2019-01-10T09:40:50.582Z,102855.50
2019-01-10T09:43:20.722Z,102853.90
2019-01-10T09:45:50.863Z,102852.78
2019-01-10T09:48:20.999Z,102850.36
2019-01-10T09:50:51.505Z,102855.36
2019-01-10T09:53:21.688Z,102856.66
2019-01-10T09:55:51.880Z,102859.83
2019-01-10T09:58:22.023Z,102855.94
2019-01-10T10:00:52.321Z,102858.34
2019-01-10T10:03:22.441Z,102857.11
2019-01-10T10:05:52.559Z,102857.63
2019-01-10T10:08:22.677Z,102858.41
2019-01-10T10:10:52.804Z,102864.00
2019-01-10T10:13:23.017Z,102859.23
2019-01-10T10:15:53.148Z,102863.11
2019-01-10T10:18:23.360Z,102861.11
2019-01-10T10:20:53.618Z,102860.33
2019-01-10T10:23:26.989Z,102858.80
2019-01-10T10:25:55.720Z,102859.00
2019-01-10T10:28:25.928Z,102853.11
2019-01-10T10:30:56.128Z,102858.06
2019-01-10T10:33:26.178Z,102860.05
2019-01-10T10:35:56.390Z,102863.33
2019-01-10T10:38:26.649Z,102865.31
2019-01-10T10:40:56.871Z,102864.08
2019-01-10T10:43:26.993Z,102859.89
2019-01-10T10:46:01.632Z,102860.47
2019-01-10T10:48:29.070Z,102858.25
2019-01-10T10:50:59.267Z,102859.03
2019-01-10T10:53:29.476Z,102854.91
2019-01-10T10:55:59.605Z,102855.28
2019-01-10T10:58:29.808Z,102850.46
2019-01-10T11:01:00.108Z,102853.49
2019-01-10T11:03:30.291Z,102851.67
2019-01-10T11:06:00.483Z,102857.72
2019-01-10T11:08:30.652Z,102854.09
2019-01-10T11:11:00.796Z,102851.24
2019-01-10T11:13:30.935Z,102846.63
2019-01-10T11:16:10.448Z,102838.14
2019-01-10T11:18:36.349Z,102846.20
2019-01-10T11:21:07.082Z,102842.05
2019-01-10T11:23:37.234Z,102835.91
2019-01-10T11:26:09.435Z,102823.09
2019-01-10T11:28:39.621Z,102828.16
2019-01-10T11:31:09.747Z,102826.71
2019-01-10T11:33:39.939Z,102819.64
2019-01-10T11:36:10.140Z,102823.80
2019-01-10T11:38:40.338Z,102819.77
2019-01-10T11:41:10.526Z,102819.11
2019-01-10T11:43:40.685Z,102816.70
2019-01-10T11:46:19.236Z,102815.23
2019-01-10T11:48:42.733Z,102816.88
2019-01-10T11:51:12.895Z,102811.52
2019-01-10T11:53:43.197Z,102815.19
2019-01-10T11:56:13.383Z,102815.34
2019-01-10T11:58:43.575Z,102812.84
2019-01-10T12:01:13.824Z,102811.22
2019-01-10T12:03:44.131Z,102811.05
2019-01-10T12:06:16.735Z,102810.91
2019-01-10T12:08:46.871Z,102812.05
2019-01-10T12:11:16.899Z,102806.05
2019-01-10T12:13:47.037Z,102810.52
2019-01-10T12:16:17.163Z,102806.20
2019-01-10T12:18:47.442Z,102816.28
2019-01-10T12:21:17.640Z,102812.06
2019-01-10T12:23:47.669Z,102799.20
2019-01-10T12:26:17.878Z,102804.73
2019-01-10T12:28:47.997Z,102798.56
2019-01-10T12:31:18.193Z,102799.69
2019-01-10T12:33:48.393Z,102794.25
2019-01-10T12:36:18.533Z,102784.06
2019-01-10T12:38:48.578Z,102787.38
2019-01-10T12:41:18.849Z,102789.23
2019-01-10T12:43:49.058Z,102788.26
2019-01-10T12:46:19.101Z,102787.75
2019-01-10T12:48:49.232Z,102793.27
2019-01-10T12:51:19.428Z,102793.92
2019-01-10T12:53:49.583Z,102785.36
2019-01-10T12:56:19.735Z,102790.71
2019-01-10T12:58:49.934Z,102793.49
2019-01-10T13:01:20.210Z,102786.66
2019-01-10T13:03:50.321Z,102784.05
2019-01-10T13:06:20.603Z,102789.97
2019-01-10T13:08:50.739Z,102791.22
2019-01-10T13:11:21.113Z,102798.11
2019-01-10T13:13:51.161Z,102795.03
2019-01-10T13:16:21.429Z,102798.47
2019-01-10T13:18:51.552Z,102794.89
2019-01-10T13:21:21.818Z,102792.29
2019-01-10T13:23:51.943Z,102798.30
2019-01-10T13:26:22.254Z,102796.94
2019-01-10T13:28:52.300Z,102796.30
2019-01-10T13:31:22.691Z,102787.51
2019-01-10T13:33:52.874Z,102791.00
2019-01-10T13:36:23.060Z,102793.52
2019-01-10T13:38:54.893Z,102792.16
2019-01-10T13:41:25.113Z,102796.22
2019-01-10T13:43:55.296Z,102792.02
2019-01-10T13:46:25.584Z,102793.14
2019-01-10T13:48:55.776Z,102790.39
2019-01-10T13:51:25.970Z,102791.70
2019-01-10T13:53:56.157Z,102794.86
2019-01-10T13:56:26.388Z,102798.05
2019-01-10T13:58:56.580Z,102792.08
2019-01-10T14:01:26.786Z,102786.70
2019-01-10T14:03:57.102Z,102785.36
2019-01-10T14:06:27.284Z,102773.83
2019-01-10T14:08:57.551Z,102769.59
2019-01-10T14:11:27.680Z,102767.22
2019-01-10T14:13:57.723Z,102767.53
2019-01-10T14:16:27.977Z,102764.55
2019-01-10T14:18:58.081Z,102769.81
2019-01-10T14:21:28.228Z,102775.42
2019-01-10T14:23:58.267Z,102772.17
2019-01-10T14:26:28.494Z,102771.03
2019-01-10T14:28:58.697Z,102766.41
2019-01-10T14:31:28.914Z,102759.57
2019-01-10T14:33:59.028Z,102763.86
2019-01-10T14:36:29.238Z,102771.31
2019-01-10T14:38:59.337Z,102766.59
2019-01-10T14:41:29.562Z,102768.05
2019-01-10T14:43:59.741Z,102763.80
2019-01-10T14:46:30.033Z,102761.67
2019-01-10T14:49:00.090Z,102761.63
2019-01-10T14:51:30.759Z,102766.25
2019-01-10T14:54:00.844Z,102767.80
2019-01-10T14:56:31.150Z,102761.27
2019-01-10T14:59:01.273Z,102758.62
2019-01-10T15:01:34.714Z,102764.27
2019-01-10T15:04:05.001Z,102770.91
2019-01-10T15:06:35.217Z,102760.67
2019-01-10T15:09:10.468Z,102758.28
2019-01-10T15:11:41.857Z,102759.48
2019-01-10T15:14:16.160Z,102752.52
2019-01-10T15:16:43.969Z,102755.52
2019-01-10T15:19:14.203Z,102761.70
2019-01-10T15:21:44.398Z,102757.40
2019-01-10T15:24:14.503Z,102754.97
2019-01-10T15:26:44.609Z,102756.84
2019-01-10T15:29:14.731Z,102750.92
2019-01-10T15:31:44.849Z,102748.02
2019-01-10T15:34:15.713Z,102742.66
2019-01-10T15:36:45.903Z,102746.72
2019-01-10T15:39:16.113Z,102740.73
2019-01-10T15:41:46.221Z,102741.73
2019-01-10T15:44:16.327Z,102741.31
2019-01-10T15:46:46.598Z,102735.40
2019-01-10T15:49:16.646Z,102733.31
2019-01-10T15:51:46.782Z,102732.02
2019-01-10T15:54:16.870Z,102734.61
2019-01-10T15:56:47.060Z,102737.20
2019-01-10T15:59:17.227Z,102734.98
2019-01-10T16:01:47.425Z,102738.16
2019-01-10T16:04:17.588Z,102735.09
2019-01-10T16:06:47.814Z,102732.08
2019-01-10T16:09:17.958Z,102732.49
2019-01-10T16:11:48.134Z,102728.19
2019-01-10T16:14:18.240Z,102733.89
2019-01-10T16:16:48.911Z,102725.27
2019-01-10T16:19:22.061Z,102726.16
2019-01-10T16:21:52.306Z,102722.27
2019-01-10T16:24:22.556Z,102714.89
2019-01-10T16:26:52.711Z,102719.30
2019-01-10T16:29:22.849Z,102715.77
2019-01-10T16:31:53.048Z,102711.56
2019-01-10T16:34:23.113Z,102713.38
2019-01-10T16:36:53.452Z,102716.45
2019-01-10T16:39:23.575Z,102708.66
2019-01-10T16:41:53.719Z,102712.08
2019-01-10T16:44:23.857Z,102709.95
2019-01-10T16:46:54.109Z,102703.46
2019-01-10T16:49:24.365Z,102703.97
2019-01-10T16:51:57.536Z,102703.66
2019-01-10T16:54:27.819Z,102700.23
2019-01-10T16:56:57.913Z,102699.03
2019-01-10T16:59:29.780Z,102697.64
2019-01-10T17:02:00.116Z,102701.13
2019-01-10T17:04:30.537Z,102695.45
2019-01-10T17:07:00.850Z,102694.56
2019-01-10T17:09:31.043Z,102699.83
2019-01-10T17:12:01.407Z,102702.73
2019-01-10T17:14:31.544Z,102702.27
2019-01-10T17:17:07.156Z,102692.19
2019-01-10T17:19:37.420Z,102693.39
2019-01-10T17:22:07.817Z,102691.11
2019-01-10T17:24:38.049Z,102691.93
2019-01-10T17:27:08.334Z,102690.63
2019-01-10T17:29:38.442Z,102691.84
2019-01-10T17:32:08.696Z,102688.25
2019-01-10T17:34:40.486Z,102692.56
2019-01-10T17:37:10.770Z,102687.69
2019-01-10T17:39:40.956Z,102691.58
2019-01-10T17:42:11.168Z,102690.28
2019-01-10T17:44:41.409Z,102688.50
2019-01-10T17:47:11.611Z,102688.00
2019-01-10T17:49:41.831Z,102683.12
2019-01-10T17:52:12.135Z,102683.12
2019-01-10T17:54:42.179Z,102687.94
2019-01-10T17:57:12.289Z,102689.61
2019-01-10T17:59:42.564Z,102691.41
2019-01-10T18:02:12.868Z,102683.53
2019-01-10T18:04:43.043Z,102686.63
2019-01-10T18:07:13.361Z,102684.92
2019-01-10T18:09:43.608Z,102680.05
2019-01-10T18:12:15.122Z,102684.92
2019-01-10T18:14:45.458Z,102683.31
2019-01-10T18:17:15.573Z,102680.78
2019-01-10T18:19:45.938Z,102680.41
2019-01-10T18:22:16.182Z,102678.53
2019-01-10T18:24:46.384Z,102675.42
2019-01-10T18:27:16.584Z,102676.72
2019-01-10T18:29:50.995Z,102670.23
2019-01-10T18:32:21.123Z,102677.14
2019-01-10T18:34:51.636Z,102664.47
2019-01-10T18:37:21.781Z,102665.77
2019-01-10T18:39:52.002Z,102664.37
2019-01-10T18:42:22.278Z,102661.88
2019-01-10T18:44:52.516Z,102664.95
2019-01-10T18:47:22.624Z,102661.97
2019-01-10T18:49:52.859Z,102653.77
2019-01-10T18:52:23.065Z,102653.45
2019-01-10T18:55:00.013Z,102651.66
2019-01-10T18:57:25.610Z,102652.16
2019-01-10T18:59:55.832Z,102646.66
2019-01-10T19:02:26.460Z,102643.73
2019-01-10T19:04:56.582Z,102641.94
2019-01-10T19:07:26.776Z,102640.63
2019-01-10T19:09:57.060Z,102649.25
2019-01-10T19:12:27.342Z,102640.54
2019-01-10T19:14:57.504Z,102633.67
2019-01-10T19:17:27.852Z,102628.16
2019-01-10T19:19:58.027Z,102633.10
2019-01-10T19:22:28.289Z,102632.88
2019-01-10T19:24:58.553Z,102635.95
2019-01-10T19:27:29.717Z,102631.58
2019-01-10T19:30:00.178Z,102631.99
2019-01-10T19:32:30.344Z,102633.45
2019-01-10T19:35:00.566Z,102628.35
2019-01-10T19:37:30.829Z,102632.25
2019-01-10T19:40:01.118Z,102624.27
2019-01-10T19:42:31.347Z,102626.07
2019-01-10T19:45:01.602Z,102627.84
2019-01-10T19:47:31.878Z,102630.13
2019-01-10T19:50:02.298Z,102627.52
2019-01-10T19:52:32.500Z,102626.32
2019-01-10T19:55:02.720Z,102621.86
2019-01-10T19:57:32.943Z,102625.25
2019-01-10T20:00:03.244Z,102625.25
2019-01-10T20:02:33.439Z,102627.37
2019-01-10T20:05:03.759Z,102630.44
2019-01-10T20:07:33.967Z,102615.12
2019-01-10T20:10:04.831Z,102625.15
2019-01-10T20:12:35.043Z,102619.39
2019-01-10T20:15:05.917Z,102621.98
2019-01-10T20:17:36.358Z,102618.41
2019-01-10T20:20:14.860Z,102616.64
2019-01-10T20:22:45.124Z,102618.41
2019-01-10T20:25:15.356Z,102612.33
2019-01-10T20:27:45.584Z,102615.34
2019-01-10T20:30:16.661Z,102610.94
2019-01-10T20:32:47.111Z,102610.94
2019-01-10T20:35:17.290Z,102609.98
2019-01-10T20:37:47.490Z,102614.67
2019-01-10T20:40:18.011Z,102615.18
2019-01-10T20:42:48.290Z,102612.64
2019-01-10T20:45:18.670Z,102609.64
2019-01-10T20:47:49.545Z,102608.84
2019-01-10T20:50:19.812Z,102610.55
2019-01-10T20:52:50.124Z,102606.66
2019-01-10T20:55:20.431Z,102603.66
2019-01-10T20:57:50.720Z,102611.03
2019-01-10T21:00:22.222Z,102605.36
2019-01-10T21:02:52.702Z,102598.30
2019-01-10T21:05:22.914Z,102601.69
2019-01-10T21:07:53.406Z,102598.63
2019-01-10T21:10:23.933Z,102597.33
2019-01-10T21:12:54.170Z,102597.23
2019-01-10T21:15:28.035Z,102599.00
2019-01-10T21:17:58.366Z,102595.05
2019-01-10T21:20:28.593Z,102600.71
2019-01-10T21:22:59.470Z,102596.03
2019-01-10T21:25:29.769Z,102597.80
2019-01-10T21:28:00.756Z,102589.03
2019-01-10T21:30:31.551Z,102583.84
2019-01-10T21:33:01.683Z,102590.01
2019-01-10T21:35:31.889Z,102582.54
2019-01-10T21:38:02.291Z,102587.41
2019-01-10T21:40:32.657Z,102588.71
2019-01-10T21:43:02.810Z,102587.92
2019-01-10T21:45:33.133Z,102587.92
2019-01-10T21:48:03.332Z,102586.63
2019-01-10T21:50:33.852Z,102579.63
2019-01-10T21:53:06.282Z,102584.02
2019-01-10T21:55:36.624Z,102574.20
2019-01-10T21:58:07.146Z,102576.48
2019-01-10T22:00:37.472Z,102578.77
2019-01-10T22:03:07.812Z,102577.84
2019-01-10T22:05:38.220Z,102578.83
2019-01-10T22:08:11.368Z,102559.98
2019-01-10T22:10:41.696Z,102558.22
2019-01-10T22:13:11.948Z,102556.09
2019-01-10T22:15:42.275Z,102552.20
2019-01-10T22:18:12.675Z,102553.81
2019-01-10T22:20:43.064Z,102550.84
2019-01-10T22:23:13.470Z,102544.25
2019-01-10T22:26:03.051Z,102541.75
2019-01-10T22:28:52.490Z,102548.40
2019-01-10T22:32:02.418Z,102548.40
2019-01-10T22:34:36.474Z,102549.22
2019-01-10T22:37:32.294Z,102553.69
2019-01-10T22:40:06.814Z,102542.41
2019-01-10T22:44:17.445Z,102545.58
2019-01-10T22:46:43.470Z,102540.85
2019-01-10T22:49:50.123Z,102540.61
2019-01-10T22:56:07.150Z,102536.86
2019-01-10T22:59:08.441Z,102533.38
2019-01-10T23:02:14.317Z,102533.89
2019-01-10T23:04:42.008Z,102518.78
2019-01-10T23:07:23.416Z,102517.98
2019-01-10T23:09:55.367Z,102515.45
2019-01-10T23:12:32.671Z,102512.85
2019-01-10T23:15:29.553Z,102508.55
2019-01-10T23:17:59.903Z,102507.75
2019-01-10T23:20:30.249Z,102505.95
2019-01-10T23:23:07.459Z,102501.41
2019-01-10T23:25:37.778Z,102497.52
2019-01-10T23:28:09.505Z,102498.08
2019-01-10T23:30:57.820Z,102495.57
2019-01-10T23:33:28.333Z,102475.20
2019-01-10T23:36:04.096Z,102478.55
2019-01-10T23:38:34.381Z,102462.16
2019-01-10T23:41:04.701Z,102484.95
2019-01-10T23:43:35.030Z,102476.66
2019-01-10T23:46:05.574Z,102490.38
2019-01-10T23:48:35.704Z,102480.87
2019-01-10T23:51:06.982Z,102486.48
2019-01-10T23:53:37.136Z,102489.08
2019-01-10T23:56:07.180Z,102491.68
2019-01-10T23:58:37.432Z,102481.29
